Time;durP1;ratioP1;P1;durP2;ratioP2;P2;SDS_P1;SDS_P2;PMS_P1;PMS_P2;Temp;Humidity;BMP_temperature;BMP_pressure;BME280_temperature;BME280_humidity;BME280_pressure;Samples;Min_cycle;Max_cycle;Signal;HPM_P1;HPM_P2
2023/12/21 00:00:52;;;;;;;128.32;57.45;;;16.80;64.70;;;;;;5056216;28;20043;-36
2023/12/21 00:03:18;;;;;;;129.73;57.47;;;16.70;64.60;;;;;;5059946;28;20080;-37
2023/12/21 00:05:44;;;;;;;130.85;57.28;;;16.70;64.80;;;;;;5060035;28;21403;-37
2023/12/21 00:08:09;;;;;;;129.55;57.10;;;16.70;64.70;;;;;;5051042;28;20050;-36
2023/12/21 00:10:35;;;;;;;127.43;57.20;;;16.70;64.80;;;;;;5057323;28;20744;-36
2023/12/21 00:13:01;;;;;;;127.60;57.50;;;16.60;65.00;;;;;;5054307;28;20794;-36
2023/12/21 00:15:26;;;;;;;127.55;57.13;;;16.70;65.00;;;;;;5055795;28;20637;-37
2023/12/21 00:17:52;;;;;;;127.25;56.83;;;16.60;65.00;;;;;;5054145;28;20106;-36
2023/12/21 00:20:20;;;;;;;131.48;57.47;;;16.50;65.20;;;;;;5056970;28;20029;-37
2023/12/21 00:22:46;;;;;;;129.77;57.53;;;16.60;65.30;;;;;;5056390;28;20053;-36
2023/12/21 00:25:12;;;;;;;127.60;56.28;;;16.60;65.40;;;;;;5063161;28;20029;-37
2023/12/21 00:27:37;;;;;;;125.80;56.35;;;16.50;65.30;;;;;;5053126;28;20044;-36
2023/12/21 00:30:04;;;;;;;128.38;57.20;;;16.50;65.40;;;;;;5058596;28;20601;-37
2023/12/21 00:32:29;;;;;;;126.70;57.08;;;16.50;65.50;;;;;;5057887;28;20096;-36
2023/12/21 00:34:55;;;;;;;128.15;57.45;;;16.50;65.50;;;;;;5054890;28;20788;-36
2023/12/21 00:37:21;;;;;;;127.40;57.25;;;16.50;65.50;;;;;;5058302;28;20037;-38
2023/12/21 00:39:47;;;;;;;128.52;57.78;;;16.50;65.50;;;;;;5054683;28;20033;-37
2023/12/21 00:42:13;;;;;;;128.27;56.78;;;16.50;65.30;;;;;;5050511;28;20068;-37
2023/12/21 00:44:39;;;;;;;128.48;57.13;;;16.50;65.40;;;;;;5054868;28;20039;-38
2023/12/21 00:47:05;;;;;;;128.43;56.97;;;16.40;65.40;;;;;;5054346;28;21866;-37
2023/12/21 00:49:31;;;;;;;127.78;57.13;;;16.40;65.50;;;;;;5057378;28;20037;-37
2023/12/21 00:51:56;;;;;;;127.70;57.58;;;16.40;65.50;;;;;;5054642;28;20086;-37
2023/12/21 00:54:22;;;;;;;129.43;57.38;;;16.40;65.50;;;;;;5053676;28;20048;-37
2023/12/21 00:56:48;;;;;;;127.22;56.85;;;16.40;65.50;;;;;;5054289;28;20037;-37
2023/12/21 00:59:13;;;;;;;128.23;56.45;;;16.40;65.50;;;;;;5051764;28;20060;-37
2023/12/21 01:01:39;;;;;;;128.35;57.33;;;16.40;65.50;;;;;;5051197;28;20075;-36
2023/12/21 01:04:05;;;;;;;128.20;56.78;;;16.40;65.50;;;;;;5056379;28;20052;-37
2023/12/21 01:06:30;;;;;;;128.35;57.33;;;16.40;65.50;;;;;;5054971;28;20044;-36
2023/12/21 01:08:56;;;;;;;128.98;56.50;;;16.40;65.50;;;;;;5058138;28;20046;-37
2023/12/21 01:11:22;;;;;;;130.15;57.40;;;16.30;65.60;;;;;;5055402;28;20044;-36
2023/12/21 01:13:47;;;;;;;128.43;57.80;;;16.30;65.70;;;;;;5058591;28;20041;-37
2023/12/21 01:16:15;;;;;;;129.40;57.17;;;16.30;65.70;;;;;;5059912;28;20037;-39
2023/12/21 01:18:41;;;;;;;127.68;56.83;;;16.20;65.80;;;;;;5053580;28;20043;-39
2023/12/21 01:21:07;;;;;;;128.38;56.85;;;16.20;65.80;;;;;;5058907;28;21087;-37
2023/12/21 01:23:32;;;;;;;126.80;57.20;;;16.30;65.90;;;;;;5053147;28;20056;-37
2023/12/21 01:25:58;;;;;;;129.00;57.30;;;16.20;65.90;;;;;;5056659;28;20205;-38
2023/12/21 01:28:24;;;;;;;127.97;56.58;;;16.20;66.00;;;;;;5054519;28;20075;-37
2023/12/21 01:30:50;;;;;;;126.95;56.83;;;16.30;66.00;;;;;;5058137;28;20073;-36
2023/12/21 01:33:15;;;;;;;126.43;56.95;;;16.20;65.90;;;;;;5053883;28;20123;-37
2023/12/21 01:35:41;;;;;;;128.80;56.53;;;16.20;66.00;;;;;;5055901;28;20029;-38
2023/12/21 01:38:07;;;;;;;128.63;57.28;;;16.20;66.10;;;;;;5052903;28;20038;-37
2023/12/21 01:40:32;;;;;;;128.40;56.72;;;16.20;66.00;;;;;;5057213;28;20511;-36
2023/12/21 01:42:58;;;;;;;128.50;56.75;;;16.20;66.00;;;;;;5051466;28;20053;-38
2023/12/21 01:45:24;;;;;;;131.20;56.92;;;16.20;66.10;;;;;;5055368;28;20176;-38
2023/12/21 01:47:51;;;;;;;129.30;57.35;;;16.20;66.20;;;;;;5056276;28;20041;-37
2023/12/21 01:50:17;;;;;;;128.57;56.80;;;16.20;66.20;;;;;;5057747;28;20047;-37
2023/12/21 01:52:43;;;;;;;126.35;56.38;;;16.20;66.20;;;;;;5062762;28;20071;-37
2023/12/21 01:55:11;;;;;;;126.40;56.20;;;16.10;66.10;;;;;;5057033;28;20527;-37
2023/12/21 01:57:38;;;;;;;129.13;57.05;;;16.20;66.20;;;;;;5053254;28;20067;-36
2023/12/21 02:00:04;;;;;;;126.93;56.72;;;16.10;66.30;;;;;;5053308;28;20126;-37
2023/12/21 02:02:30;;;;;;;129.77;56.70;;;16.10;66.40;;;;;;5052711;28;20076;-37
2023/12/21 02:04:56;;;;;;;126.78;56.35;;;16.10;66.50;;;;;;5052571;28;20120;-37
2023/12/21 02:07:22;;;;;;;127.65;56.65;;;16.10;66.50;;;;;;5059008;28;20047;-37
2023/12/21 02:09:47;;;;;;;128.88;56.58;;;16.10;66.50;;;;;;5059913;28;20029;-37
2023/12/21 02:12:13;;;;;;;126.60;56.67;;;16.10;66.60;;;;;;5055621;28;20045;-37
2023/12/21 02:14:38;;;;;;;128.88;57.15;;;16.10;66.50;;;;;;5053133;28;20553;-36
2023/12/21 02:17:12;;;;;;;126.40;56.33;;;16.10;66.60;;;;;;5056772;28;20030;-40
2023/12/21 02:19:41;;;;;;;126.07;56.65;;;16.00;66.60;;;;;;5058021;28;20052;-38
2023/12/21 02:22:07;;;;;;;127.60;56.63;;;16.00;66.60;;;;;;5052293;28;20052;-37
2023/12/21 02:24:33;;;;;;;125.53;56.42;;;16.00;66.60;;;;;;5048953;28;20044;-37
2023/12/21 02:26:59;;;;;;;127.97;56.15;;;16.00;66.60;;;;;;5049681;28;20041;-37
2023/12/21 02:29:25;;;;;;;126.03;56.83;;;16.00;66.70;;;;;;5054426;28;20042;-37
2023/12/21 02:31:51;;;;;;;124.78;56.05;;;16.00;66.70;;;;;;5060259;28;20569;-39
2023/12/21 02:34:17;;;;;;;127.40;56.00;;;16.00;66.70;;;;;;5059411;28;20462;-37
2023/12/21 02:36:43;;;;;;;127.82;56.63;;;16.00;66.70;;;;;;5053101;28;20072;-37
2023/12/21 02:39:08;;;;;;;127.20;56.20;;;16.00;67.40;;;;;;5056303;28;20179;-37
2023/12/21 02:41:34;;;;;;;128.73;56.67;;;16.00;66.80;;;;;;5054393;28;20773;-37
2023/12/21 02:43:59;;;;;;;129.25;57.35;;;16.00;67.40;;;;;;5054821;28;20514;-37
2023/12/21 02:46:26;;;;;;;127.47;56.03;;;16.00;66.80;;;;;;5055605;28;20044;-37
2023/12/21 02:48:52;;;;;;;126.80;56.20;;;16.00;66.90;;;;;;5053586;28;21109;-37
2023/12/21 02:51:18;;;;;;;126.38;56.50;;;15.90;67.00;;;;;;5055773;28;20041;-37
2023/12/21 02:53:44;;;;;;;127.07;56.03;;;15.90;67.10;;;;;;5055171;28;20049;-37
2023/12/21 02:56:09;;;;;;;126.00;56.15;;;15.90;67.10;;;;;;5057255;28;20771;-37
2023/12/21 02:58:36;;;;;;;125.10;56.17;;;15.90;67.10;;;;;;5060386;28;20470;-37
2023/12/21 03:01:02;;;;;;;126.63;56.22;;;15.90;67.00;;;;;;5056206;28;20065;-36
2023/12/21 03:03:27;;;;;;;125.65;56.30;;;15.90;67.10;;;;;;5052756;28;20124;-37
2023/12/21 03:05:53;;;;;;;128.90;56.67;;;15.90;67.10;;;;;;5057596;28;20053;-39
2023/12/21 03:08:19;;;;;;;127.20;56.47;;;15.90;67.80;;;;;;5058106;28;20072;-37
2023/12/21 03:10:45;;;;;;;128.52;56.65;;;15.90;67.10;;;;;;5059255;28;20124;-38
2023/12/21 03:13:11;;;;;;;128.10;56.38;;;15.90;67.20;;;;;;5058329;28;21006;-37
2023/12/21 03:15:37;;;;;;;127.75;56.78;;;15.90;67.30;;;;;;5061643;28;20168;-38
2023/12/21 03:18:02;;;;;;;127.03;56.83;;;15.90;67.30;;;;;;5061796;28;20049;-37
2023/12/21 03:20:28;;;;;;;127.43;57.05;;;15.90;67.30;;;;;;5060193;28;20041;-38
2023/12/21 03:22:54;;;;;;;127.75;56.33;;;15.90;67.30;;;;;;5062933;28;20049;-39
2023/12/21 03:25:19;;;;;;;128.35;56.60;;;15.80;67.20;;;;;;5061630;28;20040;-37
2023/12/21 03:27:47;;;;;;;126.35;55.97;;;15.90;67.30;;;;;;5054353;28;20037;-36
2023/12/21 03:30:12;;;;;;;126.30;56.40;;;15.80;67.40;;;;;;5060254;28;20040;-37
2023/12/21 03:32:38;;;;;;;126.88;56.53;;;15.80;67.40;;;;;;5061823;28;21124;-37
2023/12/21 03:35:07;;;;;;;128.50;56.40;;;15.80;67.30;;;;;;5060622;28;20037;-36
2023/12/21 03:37:32;;;;;;;130.13;56.38;;;15.80;67.40;;;;;;5058275;28;20168;-37
2023/12/21 03:39:59;;;;;;;126.45;56.67;;;15.80;67.50;;;;;;5055258;28;20164;-37
2023/12/21 03:42:24;;;;;;;127.53;56.85;;;15.80;67.50;;;;;;5056063;28;20041;-36
2023/12/21 03:44:50;;;;;;;129.10;55.97;;;15.80;67.60;;;;;;5055977;28;20048;-37
2023/12/21 03:47:16;;;;;;;127.55;56.15;;;15.80;67.70;;;;;;5060008;28;20041;-37
2023/12/21 03:49:41;;;;;;;127.68;56.72;;;15.80;67.60;;;;;;5058930;28;20036;-37
2023/12/21 03:52:08;;;;;;;128.13;56.53;;;15.80;67.70;;;;;;5058935;28;20425;-37
2023/12/21 03:54:33;;;;;;;126.47;56.20;;;15.80;67.70;;;;;;5053460;28;20087;-38
2023/12/21 03:56:59;;;;;;;128.80;56.53;;;15.80;67.70;;;;;;5061038;28;20045;-37
2023/12/21 03:59:25;;;;;;;123.55;55.80;;;15.80;67.70;;;;;;5056982;28;20056;-37
2023/12/21 04:01:55;;;;;;;129.18;56.45;;;15.80;67.70;;;;;;5061756;28;20049;-38
2023/12/21 04:04:21;;;;;;;126.03;56.58;;;15.80;67.70;;;;;;5060709;28;20494;-37
2023/12/21 04:06:46;;;;;;;127.35;56.05;;;15.80;67.60;;;;;;5055619;28;20139;-37
2023/12/21 04:09:12;;;;;;;126.07;56.15;;;15.80;67.60;;;;;;5055726;28;20399;-39
2023/12/21 04:11:37;;;;;;;127.28;56.08;;;15.80;67.60;;;;;;5055961;28;20073;-37
2023/12/21 04:14:03;;;;;;;126.03;56.13;;;15.80;67.50;;;;;;5058425;28;20041;-38
2023/12/21 04:16:29;;;;;;;127.22;56.30;;;15.80;67.70;;;;;;5058830;28;20530;-38
2023/12/21 04:18:54;;;;;;;125.63;55.83;;;15.80;67.50;;;;;;5058595;28;20575;-37
2023/12/21 04:21:20;;;;;;;126.95;56.05;;;15.80;67.40;;;;;;5058225;28;20034;-38
2023/12/21 04:23:46;;;;;;;125.78;55.80;;;15.80;67.40;;;;;;5062563;28;25700;-37
2023/12/21 04:26:22;;;;;;;126.43;56.38;;;15.80;67.40;;;;;;5058918;28;20959;-38
2023/12/21 04:28:49;;;;;;;124.85;55.95;;;15.80;67.40;;;;;;5062956;28;20041;-37
2023/12/21 04:31:22;;;;;;;127.90;56.58;;;15.80;67.50;;;;;;5058683;28;20082;-38
2023/12/21 04:33:51;;;;;;;124.13;55.38;;;15.80;67.50;;;;;;5057815;28;20038;-37
2023/12/21 04:36:18;;;;;;;124.22;55.80;;;15.80;67.60;;;;;;5060494;28;20044;-37
2023/12/21 04:38:44;;;;;;;129.02;56.20;;;15.80;67.60;;;;;;5053724;28;20038;-37
2023/12/21 04:41:10;;;;;;;125.18;56.03;;;15.80;67.60;;;;;;5057666;28;20035;-37
2023/12/21 04:43:39;;;;;;;125.60;56.22;;;15.80;67.70;;;;;;5051842;28;20132;-37
2023/12/21 04:46:05;;;;;;;126.43;55.85;;;15.80;67.70;;;;;;5049238;28;20071;-38
2023/12/21 04:48:31;;;;;;;125.60;55.90;;;15.80;67.80;;;;;;5050324;28;20148;-37
2023/12/21 04:50:58;;;;;;;126.05;55.88;;;15.80;67.80;;;;;;5052773;28;20918;-38
2023/12/21 04:53:23;;;;;;;124.97;56.83;;;15.80;67.90;;;;;;5057699;28;20498;-37
2023/12/21 04:55:49;;;;;;;128.75;56.30;;;15.80;67.80;;;;;;5055031;28;20231;-39
2023/12/21 04:58:18;;;;;;;123.88;55.80;;;15.80;68.90;;;;;;5051435;28;20858;-37
2023/12/21 05:00:47;;;;;;;123.90;55.55;;;15.80;68.00;;;;;;5051071;28;20040;-38
2023/12/21 05:03:13;;;;;;;125.03;56.03;;;15.80;68.10;;;;;;5052347;28;20048;-38
2023/12/21 05:05:39;;;;;;;126.57;56.53;;;15.70;68.00;;;;;;5049595;28;20041;-38
2023/12/21 05:08:05;;;;;;;126.38;56.15;;;15.70;68.10;;;;;;5057151;28;20092;-39
2023/12/21 05:10:31;;;;;;;127.18;55.88;;;15.70;68.00;;;;;;5052553;28;20037;-38
2023/12/21 05:12:56;;;;;;;128.13;56.28;;;15.80;68.10;;;;;;5056027;28;20057;-39
2023/12/21 05:15:22;;;;;;;125.85;56.08;;;15.80;68.20;;;;;;5048231;28;20107;-38
2023/12/21 05:17:47;;;;;;;125.65;56.33;;;15.70;68.10;;;;;;5056255;28;20056;-38
2023/12/21 05:20:13;;;;;;;124.43;55.40;;;15.70;68.10;;;;;;5052796;28;21374;-39
2023/12/21 05:22:41;;;;;;;127.57;56.05;;;15.70;68.20;;;;;;5052690;28;20072;-37
2023/12/21 05:25:07;;;;;;;124.68;56.30;;;15.70;68.30;;;;;;5056772;28;20093;-38
2023/12/21 05:27:33;;;;;;;126.72;55.70;;;15.70;68.40;;;;;;5052238;28;20574;-38
2023/12/21 05:29:58;;;;;;;125.60;55.88;;;15.70;68.30;;;;;;5055305;28;20055;-38
2023/12/21 05:32:24;;;;;;;125.97;55.67;;;15.70;68.30;;;;;;5052738;28;20090;-37
2023/12/21 05:34:49;;;;;;;127.28;56.25;;;15.70;68.30;;;;;;5056403;28;21066;-38
2023/12/21 05:37:15;;;;;;;125.35;56.28;;;15.70;68.30;;;;;;5055269;28;20152;-38
2023/12/21 05:39:44;;;;;;;126.45;56.05;;;15.70;68.40;;;;;;5057460;28;20033;-39
2023/12/21 05:42:10;;;;;;;125.95;56.15;;;15.70;69.10;;;;;;5055166;28;20969;-38
2023/12/21 05:44:35;;;;;;;127.13;56.55;;;15.70;68.30;;;;;;5055974;28;20136;-37
2023/12/21 05:47:01;;;;;;;125.50;56.08;;;15.70;68.40;;;;;;5054477;28;20060;-38
2023/12/21 05:49:27;;;;;;;130.50;56.58;;;15.70;68.50;;;;;;5050676;28;20046;-37
2023/12/21 05:51:52;;;;;;;126.40;56.03;;;15.70;68.60;;;;;;5053719;28;20063;-38
2023/12/21 05:54:18;;;;;;;123.63;56.08;;;15.70;68.50;;;;;;5056052;28;20125;-38
2023/12/21 05:56:43;;;;;;;125.20;55.75;;;15.70;68.60;;;;;;5051665;28;20354;-37
2023/12/21 05:59:11;;;;;;;127.45;56.10;;;15.70;68.60;;;;;;5045937;28;20160;-38
2023/12/21 06:01:36;;;;;;;128.65;56.42;;;15.70;68.60;;;;;;5050077;28;21976;-38
2023/12/21 06:04:02;;;;;;;126.10;56.53;;;15.70;68.60;;;;;;5053768;28;20045;-37
2023/12/21 06:06:28;;;;;;;125.13;55.30;;;15.70;68.60;;;;;;5052722;28;20047;-37
2023/12/21 06:08:53;;;;;;;124.43;55.72;;;15.70;68.50;;;;;;5053555;28;20041;-37
2023/12/21 06:11:19;;;;;;;125.10;55.90;;;15.70;68.50;;;;;;5056237;28;20037;-37
2023/12/21 06:13:45;;;;;;;126.80;56.03;;;15.70;68.60;;;;;;5051263;28;20060;-37
2023/12/21 06:16:11;;;;;;;124.65;55.95;;;15.70;68.70;;;;;;5058485;28;20120;-38
2023/12/21 06:18:38;;;;;;;127.18;56.33;;;15.70;68.80;;;;;;5054602;28;20029;-37
2023/12/21 06:21:04;;;;;;;124.60;55.45;;;15.70;68.70;;;;;;5054154;28;20033;-38
2023/12/21 06:23:29;;;;;;;127.03;56.03;;;15.70;68.70;;;;;;5050328;28;20498;-38
2023/12/21 06:25:55;;;;;;;126.75;55.85;;;15.70;68.80;;;;;;5050776;28;20060;-38
2023/12/21 06:28:24;;;;;;;126.03;55.70;;;15.70;68.70;;;;;;5046048;28;20041;-37
2023/12/21 06:30:49;;;;;;;124.18;56.33;;;15.70;68.90;;;;;;5045674;28;20037;-37
2023/12/21 06:33:15;;;;;;;127.20;56.13;;;15.70;68.90;;;;;;5054653;28;20733;-38
2023/12/21 06:35:41;;;;;;;125.70;55.92;;;15.70;68.90;;;;;;5046500;28;20136;-37
2023/12/21 06:38:07;;;;;;;124.85;55.53;;;15.60;69.00;;;;;;5053052;28;20087;-37
2023/12/21 06:40:33;;;;;;;125.75;55.97;;;15.70;69.00;;;;;;5051283;28;20041;-37
2023/12/21 06:42:59;;;;;;;124.72;56.35;;;15.60;69.10;;;;;;5054101;28;20044;-38
2023/12/21 06:45:25;;;;;;;126.00;55.38;;;15.70;69.00;;;;;;5049148;28;20696;-37
2023/12/21 06:47:51;;;;;;;126.40;56.00;;;15.70;69.10;;;;;;5048602;28;20584;-37
2023/12/21 06:50:17;;;;;;;123.47;55.70;;;15.70;69.20;;;;;;5050358;28;20037;-37
2023/12/21 06:52:42;;;;;;;128.88;56.03;;;15.60;69.30;;;;;;5059271;28;20511;-37
2023/12/21 06:55:08;;;;;;;127.10;56.28;;;15.70;69.30;;;;;;5057467;28;20037;-37
2023/12/21 06:57:34;;;;;;;131.93;55.67;;;15.70;69.30;;;;;;5058369;28;20043;-37
2023/12/21 07:00:00;;;;;;;129.48;55.90;;;15.70;69.40;;;;;;5059436;28;21013;-36
2023/12/21 07:02:25;;;;;;;127.28;56.40;;;15.70;69.30;;;;;;5055023;28;20365;-37
2023/12/21 07:04:51;;;;;;;128.00;56.58;;;15.60;69.40;;;;;;5053271;28;20036;-37
2023/12/21 07:07:17;;;;;;;128.00;56.33;;;15.70;69.50;;;;;;5054529;28;20132;-37
2023/12/21 07:09:42;;;;;;;124.40;55.72;;;15.70;69.70;;;;;;5057529;28;20033;-37
2023/12/21 07:12:08;;;;;;;128.82;56.63;;;15.70;69.60;;;;;;5058210;28;20036;-37
2023/12/21 07:14:37;;;;;;;128.55;56.55;;;15.70;69.50;;;;;;5062851;28;20110;-37
2023/12/21 07:17:03;;;;;;;128.60;56.88;;;15.70;69.60;;;;;;5053563;28;20040;-37
2023/12/21 07:19:28;;;;;;;127.20;56.55;;;15.70;69.60;;;;;;5055001;28;20090;-38
2023/12/21 07:21:54;;;;;;;128.15;56.97;;;15.70;69.60;;;;;;5054329;28;20037;-38
2023/12/21 07:24:20;;;;;;;128.43;57.15;;;15.70;69.80;;;;;;5050178;28;20247;-38
2023/12/21 07:26:45;;;;;;;129.02;58.03;;;15.70;70.20;;;;;;5045135;28;20040;-38
2023/12/21 07:29:11;;;;;;;129.55;56.92;;;15.70;70.50;;;;;;5054427;28;20040;-38
2023/12/21 07:31:37;;;;;;;132.75;57.40;;;15.80;70.80;;;;;;5053116;28;20053;-37
2023/12/21 07:34:02;;;;;;;129.60;56.35;;;15.90;70.30;;;;;;5058355;28;20128;-38
2023/12/21 07:36:28;;;;;;;131.25;56.72;;;16.00;70.10;;;;;;5058066;28;20111;-37
2023/12/21 07:38:54;;;;;;;127.47;56.75;;;16.00;70.50;;;;;;5051148;28;20526;-39
2023/12/21 07:41:19;;;;;;;124.28;56.25;;;16.10;70.70;;;;;;5049850;28;20034;-38
2023/12/21 07:43:45;;;;;;;127.88;57.10;;;16.10;70.10;;;;;;5044788;28;20057;-39
2023/12/21 07:46:13;;;;;;;131.13;56.67;;;16.10;69.80;;;;;;5042058;28;20116;-38
2023/12/21 07:48:39;;;;;;;134.90;56.38;;;16.10;70.10;;;;;;5046915;28;20052;-36
2023/12/21 07:51:05;;;;;;;164.27;66.28;;;16.10;71.00;;;;;;5046291;28;20037;-39
2023/12/21 07:53:30;;;;;;;144.00;60.63;;;16.20;70.40;;;;;;5047761;28;21081;-34
2023/12/21 07:55:56;;;;;;;133.45;58.50;;;16.20;70.20;;;;;;5043923;28;20128;-39
2023/12/21 07:58:22;;;;;;;133.00;59.25;;;16.20;70.20;;;;;;5039043;28;20743;-35
2023/12/21 08:00:48;;;;;;;134.90;58.80;;;16.20;70.00;;;;;;5039949;28;20116;-38
2023/12/21 08:03:14;;;;;;;132.82;58.58;;;16.20;70.10;;;;;;5038794;28;21311;-38
2023/12/21 08:05:39;;;;;;;133.93;57.97;;;16.20;70.20;;;;;;5043816;28;20041;-37
2023/12/21 08:08:05;;;;;;;137.68;58.13;;;16.20;70.10;;;;;;5042857;28;20047;-35
2023/12/21 08:10:31;;;;;;;135.90;58.15;;;16.20;70.10;;;;;;5038269;28;20650;-35
2023/12/21 08:12:58;;;;;;;132.07;57.83;;;16.20;70.00;;;;;;5048606;28;21438;-35
2023/12/21 08:15:26;;;;;;;136.32;58.60;;;16.20;70.00;;;;;;5034120;28;20040;-35
2023/12/21 08:17:55;;;;;;;130.90;57.72;;;16.20;70.20;;;;;;5038984;28;20041;-38
2023/12/21 08:20:24;;;;;;;133.07;57.95;;;16.20;70.20;;;;;;5041220;28;20065;-41
2023/12/21 08:22:50;;;;;;;133.90;58.20;;;16.20;70.30;;;;;;5036581;28;20064;-39
2023/12/21 08:25:15;;;;;;;131.90;57.75;;;16.20;70.60;;;;;;5037981;28;20144;-37
2023/12/21 08:27:41;;;;;;;131.10;58.58;;;16.30;70.40;;;;;;5037270;28;20187;-37
2023/12/21 08:30:10;;;;;;;135.02;58.25;;;16.30;70.00;;;;;;5040999;28;20088;-39
2023/12/21 08:32:36;;;;;;;132.88;58.47;;;16.30;69.70;;;;;;5041834;28;20045;-36
2023/12/21 08:35:01;;;;;;;132.10;59.47;;;16.40;69.70;;;;;;5028537;28;21251;-39
2023/12/21 08:37:27;;;;;;;131.88;57.97;;;16.40;69.80;;;;;;5029442;28;20095;-38
2023/12/21 08:39:53;;;;;;;134.32;59.38;;;16.50;70.30;;;;;;5039616;28;20037;-39
2023/12/21 08:42:19;;;;;;;136.48;60.97;;;16.60;70.40;;;;;;5032926;28;20045;-38
2023/12/21 08:44:44;;;;;;;135.27;61.92;;;16.60;70.60;;;;;;5035135;28;20100;-37
2023/12/21 08:47:10;;;;;;;137.73;62.90;;;16.70;70.40;;;;;;5037449;28;20064;-36
2023/12/21 08:49:35;;;;;;;137.77;63.67;;;16.80;70.10;;;;;;5042901;28;20045;-38
2023/12/21 08:52:01;;;;;;;142.60;64.85;;;16.80;69.90;;;;;;5040482;28;20033;-40
2023/12/21 08:54:27;;;;;;;140.68;63.67;;;16.90;69.80;;;;;;5040534;28;20499;-43
2023/12/21 08:56:53;;;;;;;138.90;64.07;;;17.00;69.00;;;;;;5036348;28;21072;-42
2023/12/21 08:59:19;;;;;;;139.95;62.72;;;17.10;68.70;;;;;;5038393;28;20049;-38
2023/12/21 09:01:45;;;;;;;139.88;63.60;;;17.10;68.60;;;;;;5025819;28;20041;-38
2023/12/21 09:04:10;;;;;;;135.80;63.15;;;17.10;69.20;;;;;;5028733;28;20041;-36
2023/12/21 09:06:36;;;;;;;136.75;61.55;;;17.20;68.60;;;;;;5042322;28;20400;-37
2023/12/21 09:09:03;;;;;;;137.80;62.75;;;17.30;68.60;;;;;;5039527;28;20136;-39
2023/12/21 09:11:28;;;;;;;136.60;61.05;;;17.30;68.70;;;;;;5035035;28;20595;-40
2023/12/21 09:13:58;;;;;;;138.10;61.53;;;17.40;68.70;;;;;;5026003;28;20044;-37
2023/12/21 09:16:24;;;;;;;135.38;60.78;;;17.40;68.60;;;;;;5037664;28;20068;-40
2023/12/21 09:18:51;;;;;;;136.73;61.38;;;17.50;68.90;;;;;;5036793;28;20041;-41
2023/12/21 09:21:17;;;;;;;135.40;60.42;;;17.50;68.20;;;;;;5040941;28;20040;-38
2023/12/21 09:23:43;;;;;;;135.63;60.90;;;17.50;68.10;;;;;;5042353;28;20048;-39
2023/12/21 09:26:10;;;;;;;135.98;60.67;;;17.50;68.10;;;;;;5026393;28;20124;-40
2023/12/21 09:28:37;;;;;;;135.65;60.05;;;17.60;68.40;;;;;;5038152;28;20148;-43
2023/12/21 09:31:04;;;;;;;138.38;60.25;;;17.60;68.00;;;;;;5036971;28;20110;-40
2023/12/21 09:33:33;;;;;;;133.75;59.92;;;17.60;68.00;;;;;;5039446;28;20045;-44
2023/12/21 09:35:59;;;;;;;136.98;59.58;;;17.60;67.90;;;;;;5044394;28;20526;-39
2023/12/21 09:38:25;;;;;;;133.10;59.72;;;17.70;68.00;;;;;;5042186;28;20053;-41
2023/12/21 09:40:51;;;;;;;135.98;60.10;;;17.70;67.50;;;;;;5034526;28;20446;-48
2023/12/21 09:43:21;;;;;;;133.07;59.58;;;17.80;67.60;;;;;;5039814;28;20097;-44
2023/12/21 09:45:52;;;;;;;133.38;59.13;;;17.90;67.30;;;;;;5038264;28;20067;-42
2023/12/21 09:48:20;;;;;;;136.00;59.90;;;17.90;67.30;;;;;;5036842;28;20079;-41
2023/12/21 09:50:49;;;;;;;133.90;59.50;;;18.00;67.30;;;;;;5040689;28;20034;-42
2023/12/21 09:53:16;;;;;;;133.75;59.65;;;18.10;66.90;;;;;;5041622;28;20037;-39
2023/12/21 09:55:43;;;;;;;136.35;59.65;;;18.10;66.70;;;;;;5039463;28;20032;-41
2023/12/21 09:58:11;;;;;;;136.38;60.03;;;18.20;66.80;;;;;;5035714;28;20049;-37
2023/12/21 10:00:38;;;;;;;134.18;58.90;;;18.20;66.60;;;;;;5038535;28;20105;-38
2023/12/21 10:03:04;;;;;;;256.20;105.00;;;18.30;66.40;;;;;;5034689;28;20674;-41
2023/12/21 10:05:30;;;;;;;185.77;80.38;;;18.30;66.50;;;;;;5038577;28;20104;-36
2023/12/21 10:07:57;;;;;;;192.25;79.35;;;18.30;66.10;;;;;;5039948;28;20139;-36
2023/12/21 10:10:22;;;;;;;179.10;77.90;;;18.30;66.40;;;;;;5037297;28;20041;-38
2023/12/21 10:12:48;;;;;;;164.30;70.72;;;18.30;66.60;;;;;;5032904;28;20128;-39
2023/12/21 10:15:14;;;;;;;240.43;98.00;;;18.40;66.70;;;;;;5043259;28;20075;-37
2023/12/21 10:17:40;;;;;;;206.88;82.28;;;18.40;66.40;;;;;;5041418;28;20045;-38
2023/12/21 10:20:11;;;;;;;175.68;72.72;;;18.40;66.40;;;;;;5036749;28;20048;-39
2023/12/21 10:22:42;;;;;;;168.25;69.50;;;18.40;66.40;;;;;;5039210;28;20052;-41
2023/12/21 10:25:09;;;;;;;152.88;65.63;;;18.40;66.30;;;;;;5043530;28;20025;-41
2023/12/21 10:27:35;;;;;;;153.25;65.75;;;18.40;66.10;;;;;;5046331;28;20083;-42
2023/12/21 10:30:02;;;;;;;145.80;63.90;;;18.40;66.30;;;;;;5042886;28;20037;-41
2023/12/21 10:32:28;;;;;;;146.30;63.42;;;18.40;66.10;;;;;;5050344;28;20045;-47
2023/12/21 10:34:54;;;;;;;147.25;63.85;;;18.40;65.80;;;;;;5049980;28;20072;-47
2023/12/21 10:37:22;;;;;;;145.95;62.97;;;18.50;65.60;;;;;;5057548;28;20675;-41
2023/12/21 10:39:48;;;;;;;142.52;62.60;;;18.40;65.40;;;;;;5050186;28;20045;-43
2023/12/21 10:42:14;;;;;;;138.35;61.40;;;18.30;65.60;;;;;;5053666;28;20041;-40
2023/12/21 10:44:44;;;;;;;141.35;60.90;;;18.40;65.40;;;;;;5055473;28;20040;-41
2023/12/21 10:47:11;;;;;;;142.23;61.40;;;18.40;65.20;;;;;;5048095;28;20044;-43
2023/12/21 10:49:40;;;;;;;138.50;61.05;;;18.50;65.30;;;;;;5051463;28;20132;-45
2023/12/21 10:52:07;;;;;;;142.40;61.03;;;18.60;65.00;;;;;;5048217;28;20038;-42
2023/12/21 10:54:33;;;;;;;138.07;60.28;;;18.60;64.80;;;;;;5052489;28;20057;-47
2023/12/21 10:57:00;;;;;;;138.90;60.45;;;18.60;64.80;;;;;;5048073;28;20052;-45
2023/12/21 10:59:28;;;;;;;139.65;60.45;;;18.70;64.60;;;;;;5057765;28;20606;-42
2023/12/21 11:01:54;;;;;;;141.57;60.78;;;18.70;64.50;;;;;;5049645;28;20029;-43
2023/12/21 11:04:23;;;;;;;139.65;60.90;;;18.70;64.50;;;;;;5047117;28;20068;-43
2023/12/21 11:06:49;;;;;;;137.57;59.90;;;18.70;64.30;;;;;;5050462;28;20067;-38
2023/12/21 11:09:21;;;;;;;137.85;60.40;;;18.60;64.30;;;;;;5044743;28;20756;-41
2023/12/21 11:11:47;;;;;;;139.80;60.55;;;18.70;64.70;;;;;;5047941;28;20033;-41
2023/12/21 11:14:13;;;;;;;137.20;59.75;;;18.70;64.90;;;;;;5044677;28;20846;-41
2023/12/21 11:16:47;;;;;;;136.57;59.80;;;18.70;65.00;;;;;;5052585;28;20445;-40
2023/12/21 11:19:16;;;;;;;140.00;61.28;;;18.70;65.00;;;;;;5045623;28;20885;-40
2023/12/21 11:21:42;;;;;;;138.70;59.85;;;18.70;65.20;;;;;;5045567;28;20161;-40
2023/12/21 11:24:19;;;;;;;137.98;60.35;;;18.70;65.10;;;;;;5048152;28;20037;-42
2023/12/21 11:26:45;;;;;;;134.80;60.42;;;18.70;65.10;;;;;;5038006;28;20569;-43
2023/12/21 11:29:10;;;;;;;136.52;59.17;;;18.70;65.00;;;;;;5047086;28;20072;-42
2023/12/21 11:31:38;;;;;;;138.85;60.13;;;18.70;65.00;;;;;;5044810;28;20138;-43
2023/12/21 11:34:18;;;;;;;136.60;58.70;;;18.70;65.20;;;;;;5046771;28;20037;-45
2023/12/21 11:36:46;;;;;;;133.88;59.03;;;18.80;65.20;;;;;;5050444;28;20133;-45
2023/12/21 11:39:17;;;;;;;135.63;59.78;;;18.80;65.40;;;;;;5046739;28;20091;-47
2023/12/21 11:41:50;;;;;;;134.52;59.22;;;18.80;65.50;;;;;;5039455;28;20213;-46
2023/12/21 11:44:17;;;;;;;134.70;59.00;;;18.70;65.50;;;;;;5047048;28;20049;-48
2023/12/21 11:46:44;;;;;;;133.80;58.75;;;18.70;65.70;;;;;;5049584;28;25183;-45
2023/12/21 11:49:20;;;;;;;134.98;58.65;;;18.70;65.80;;;;;;5045295;28;20523;-44
2023/12/21 11:51:47;;;;;;;138.23;59.22;;;18.70;65.10;;;;;;5043373;28;20033;-37
2023/12/21 11:54:22;;;;;;;134.05;58.60;;;18.60;65.60;;;;;;5059420;28;20036;-42
2023/12/21 11:56:52;;;;;;;135.32;59.15;;;18.70;65.80;;;;;;5052787;28;20033;-43
2023/12/21 11:59:22;;;;;;;137.88;60.28;;;18.80;65.70;;;;;;5048300;28;20048;-43
2023/12/21 12:01:48;;;;;;;138.05;61.03;;;18.80;65.60;;;;;;5041536;28;20048;-38
2023/12/21 12:04:15;;;;;;;137.48;59.65;;;18.80;65.10;;;;;;5052603;28;20048;-35
2023/12/21 12:06:43;;;;;;;136.02;58.42;;;18.70;66.30;;;;;;5060524;28;20045;-39
2023/12/21 12:09:09;;;;;;;134.68;59.28;;;18.70;66.70;;;;;;5052525;28;20045;-35
2023/12/21 12:11:34;;;;;;;136.00;58.90;;;18.70;67.10;;;;;;5058782;28;20114;-38
2023/12/21 12:14:00;;;;;;;135.77;58.42;;;18.70;67.20;;;;;;5062446;28;20454;-41